createdAt,value
2023-05-08T00:01:59.749Z,11.65
2023-05-08T00:04:26.746Z,10.57
2023-05-08T00:06:53.334Z,11.15
2023-05-08T00:09:20.760Z,10.20
2023-05-08T00:11:47.610Z,11.73
2023-05-08T00:14:14.336Z,12.23
2023-05-08T00:16:41.115Z,11.30
2023-05-08T00:19:08.571Z,11.98
2023-05-08T00:21:36.050Z,11.60
2023-05-08T00:24:02.606Z,10.77
2023-05-08T00:26:29.218Z,10.50
2023-05-08T00:28:55.956Z,13.00
2023-05-08T00:31:22.478Z,10.60
2023-05-08T00:33:49.039Z,12.75
2023-05-08T00:36:15.838Z,10.63
2023-05-08T00:38:42.572Z,10.23
2023-05-08T00:41:09.795Z,11.15
2023-05-08T00:43:37.644Z,10.02
2023-05-08T00:46:04.442Z,10.48
2023-05-08T00:48:34.685Z,10.70
2023-05-08T00:51:04.431Z,11.65
2023-05-08T00:53:33.601Z,11.57
2023-05-08T00:56:00.298Z,10.98
2023-05-08T00:58:27.888Z,11.07
2023-05-08T01:00:56.986Z,10.48
2023-05-08T01:03:24.666Z,10.57
2023-05-08T01:05:51.481Z,9.68
2023-05-08T01:08:18.073Z,10.93
2023-05-08T01:10:56.946Z,10.63
2023-05-08T01:14:02.396Z,10.60
2023-05-08T01:16:28.937Z,11.05
2023-05-08T01:19:14.564Z,9.60
2023-05-08T01:21:55.682Z,10.73
2023-05-08T01:24:47.370Z,10.40
2023-05-08T01:28:07.039Z,10.52
2023-05-08T01:30:45.574Z,10.38
2023-05-08T01:33:39.412Z,11.18
2023-05-08T01:36:44.431Z,13.13
2023-05-08T01:39:26.837Z,11.55
2023-05-08T01:42:05.070Z,11.38
2023-05-08T01:44:37.376Z,10.93
2023-05-08T01:47:09.881Z,10.57
2023-05-08T01:49:43.606Z,10.45
2023-05-08T01:52:15.722Z,10.80
2023-05-08T01:55:05.914Z,11.80
2023-05-08T01:57:34.846Z,9.98
2023-05-08T02:00:04.370Z,11.02
2023-05-08T02:02:33.203Z,11.23
2023-05-08T02:05:04.695Z,9.98
2023-05-08T02:07:35.207Z,11.13
2023-05-08T02:10:03.657Z,11.68
2023-05-08T02:12:32.202Z,10.75
2023-05-08T02:15:01.751Z,10.00
2023-05-08T02:17:29.990Z,11.82
2023-05-08T02:19:59.271Z,11.50
2023-05-08T02:22:31.162Z,11.18
2023-05-08T02:24:58.595Z,10.52
2023-05-08T02:27:29.150Z,12.13
2023-05-08T02:29:57.212Z,11.25
2023-05-08T02:32:25.646Z,11.40
2023-05-08T02:35:02.566Z,10.35
2023-05-08T02:37:31.728Z,9.77
2023-05-08T02:39:58.866Z,10.82
2023-05-08T02:42:25.704Z,10.82
2023-05-08T02:44:52.312Z,10.40
2023-05-08T02:47:51.137Z,10.75
2023-05-08T02:50:27.333Z,12.90
2023-05-08T02:53:03.133Z,11.02
2023-05-08T02:55:40.113Z,11.35
2023-05-08T02:58:22.256Z,11.32
2023-05-08T03:01:07.361Z,12.07
2023-05-08T03:03:43.403Z,11.15
2023-05-08T03:06:13.948Z,11.65
2023-05-08T03:08:42.480Z,11.02
2023-05-08T03:11:14.463Z,11.57
2023-05-08T03:13:42.573Z,11.48
2023-05-08T03:16:14.940Z,11.90
2023-05-08T03:18:52.749Z,12.40
2023-05-08T03:21:20.435Z,11.52
2023-05-08T03:23:49.293Z,14.70
2023-05-08T03:26:19.598Z,13.18
2023-05-08T03:28:50.508Z,12.73
2023-05-08T03:31:21.358Z,13.20
2023-05-08T03:33:50.596Z,12.38
2023-05-08T03:36:18.152Z,12.52
2023-05-08T03:38:45.218Z,11.93
2023-05-08T03:41:12.669Z,13.82
2023-05-08T03:43:40.212Z,13.23
2023-05-08T03:46:07.731Z,12.32
2023-05-08T03:48:35.706Z,12.90
2023-05-08T03:51:03.669Z,13.20
2023-05-08T03:53:31.890Z,12.90
2023-05-08T03:55:59.805Z,12.65
2023-05-08T03:58:32.729Z,13.20
2023-05-08T04:01:11.659Z,13.55
2023-05-08T04:03:56.029Z,13.68
2023-05-08T04:06:42.137Z,12.43
2023-05-08T04:10:07.004Z,11.93
2023-05-08T04:12:40.269Z,11.52
2023-05-08T04:15:16.002Z,12.93
2023-05-08T04:17:45.922Z,11.68
2023-05-08T04:20:16.319Z,12.25
2023-05-08T04:22:45.029Z,13.02
2023-05-08T04:25:12.772Z,12.95
2023-05-08T04:27:39.581Z,12.38
2023-05-08T04:30:07.645Z,12.55
2023-05-08T04:32:38.333Z,11.18
2023-05-08T04:35:06.701Z,12.25
2023-05-08T04:37:33.406Z,13.50
2023-05-08T04:40:01.109Z,11.93
2023-05-08T04:42:28.090Z,13.18
2023-05-08T04:44:54.954Z,13.27
2023-05-08T04:47:21.758Z,12.10
2023-05-08T04:49:48.318Z,11.85
2023-05-08T04:52:14.980Z,12.80
2023-05-08T04:54:41.617Z,12.32
2023-05-08T04:57:08.259Z,11.48
2023-05-08T04:59:34.870Z,12.57
2023-05-08T05:02:06.124Z,14.02
2023-05-08T05:04:32.789Z,11.90
2023-05-08T05:06:59.738Z,11.85
2023-05-08T05:09:26.355Z,13.05
2023-05-08T05:11:52.915Z,11.15
2023-05-08T05:14:19.481Z,11.13
2023-05-08T05:16:46.283Z,10.90
2023-05-08T05:19:13.465Z,11.35
2023-05-08T05:21:40.079Z,11.55
2023-05-08T05:24:06.929Z,11.80
2023-05-08T05:26:36.372Z,11.20
2023-05-08T05:29:03.500Z,11.65
2023-05-08T05:31:30.250Z,12.43
2023-05-08T05:33:56.854Z,10.55
2023-05-08T05:36:23.479Z,11.43
2023-05-08T05:38:50.042Z,10.88
2023-05-08T05:41:16.605Z,10.13
2023-05-08T05:43:43.277Z,10.70
2023-05-08T05:46:10.159Z,10.00
2023-05-08T05:48:36.862Z,10.27
2023-05-08T05:51:03.734Z,9.85
2023-05-08T05:53:30.378Z,10.80
2023-05-08T05:55:56.954Z,9.40
2023-05-08T05:58:23.557Z,8.55
2023-05-08T06:00:50.248Z,8.98
2023-05-08T06:03:16.971Z,9.70
2023-05-08T06:05:43.820Z,8.32
2023-05-08T06:08:11.265Z,7.93
2023-05-08T06:10:38.000Z,8.70
2023-05-08T06:13:04.801Z,8.98
2023-05-08T06:15:31.459Z,7.95
2023-05-08T06:17:58.175Z,7.90
2023-05-08T06:20:26.360Z,8.73
2023-05-08T06:22:53.178Z,9.32
2023-05-08T06:25:20.183Z,9.23
2023-05-08T06:27:46.711Z,9.15
2023-05-08T06:30:13.452Z,7.90
2023-05-08T06:32:40.295Z,9.57
2023-05-08T06:35:07.439Z,7.30
2023-05-08T06:37:34.044Z,7.82
2023-05-08T06:40:11.491Z,7.90
2023-05-08T06:42:39.865Z,8.68
2023-05-08T06:45:07.361Z,8.57
2023-05-08T06:47:34.077Z,8.93
2023-05-08T06:50:01.054Z,8.25
2023-05-08T06:52:27.645Z,7.43
2023-05-08T06:54:55.464Z,7.53
2023-05-08T06:57:22.111Z,7.75
2023-05-08T06:59:48.676Z,7.22
2023-05-08T07:02:16.285Z,8.15
2023-05-08T07:04:44.404Z,7.80
2023-05-08T07:07:11.611Z,7.53
2023-05-08T07:09:38.218Z,7.18
2023-05-08T07:12:08.733Z,8.10
2023-05-08T07:14:35.519Z,7.97
2023-05-08T07:17:06.867Z,7.95
2023-05-08T07:19:36.182Z,8.20
2023-05-08T07:22:04.759Z,8.02
2023-05-08T07:24:32.324Z,6.82
2023-05-08T07:27:02.174Z,8.50
2023-05-08T07:29:29.097Z,7.00
2023-05-08T07:31:55.660Z,7.55
2023-05-08T07:34:22.503Z,7.38
2023-05-08T07:36:49.371Z,7.57
2023-05-08T07:39:16.381Z,6.95
2023-05-08T07:41:43.091Z,7.28
2023-05-08T07:44:09.741Z,7.68
2023-05-08T07:46:37.065Z,6.72
2023-05-08T07:49:03.908Z,7.40
2023-05-08T07:51:30.442Z,6.57
2023-05-08T07:53:57.055Z,7.07
2023-05-08T07:56:23.652Z,7.57
2023-05-08T07:58:50.273Z,8.68
2023-05-08T08:01:18.168Z,7.15
2023-05-08T08:03:46.165Z,7.57
2023-05-08T08:06:13.162Z,8.10
2023-05-08T08:08:40.404Z,9.65
2023-05-08T08:11:07.456Z,7.93
2023-05-08T08:13:35.381Z,8.80
2023-05-08T08:16:04.119Z,6.50
2023-05-08T08:18:35.114Z,6.80
2023-05-08T08:21:04.666Z,7.38
2023-05-08T08:23:31.272Z,6.88
2023-05-08T08:25:57.844Z,6.85
2023-05-08T08:28:24.547Z,6.85
2023-05-08T08:30:51.504Z,6.53
2023-05-08T08:33:19.160Z,7.05
2023-05-08T08:35:45.910Z,7.80
2023-05-08T08:38:12.641Z,6.68
2023-05-08T08:40:43.071Z,7.22
2023-05-08T08:43:10.006Z,6.72
2023-05-08T08:45:37.302Z,7.95
2023-05-08T08:48:04.630Z,7.57
2023-05-08T08:50:35.468Z,7.07
2023-05-08T08:53:08.150Z,6.47
2023-05-08T08:55:39.527Z,9.25
2023-05-08T08:58:14.061Z,6.50
2023-05-08T09:00:41.784Z,7.18
2023-05-08T09:03:08.492Z,8.45
2023-05-08T09:05:36.166Z,6.43
2023-05-08T09:08:02.876Z,6.85
2023-05-08T09:10:29.605Z,7.43
2023-05-08T09:12:56.422Z,7.60
2023-05-08T09:15:23.289Z,7.35
2023-05-08T09:17:50.135Z,7.03
2023-05-08T09:20:16.957Z,8.45
2023-05-08T09:22:43.769Z,7.22
2023-05-08T09:25:10.779Z,6.95
2023-05-08T09:27:38.418Z,7.03
2023-05-08T09:30:06.360Z,7.53
2023-05-08T09:32:34.947Z,6.43
2023-05-08T09:35:02.039Z,6.60
2023-05-08T09:37:29.210Z,6.88
2023-05-08T09:40:14.403Z,7.78
2023-05-08T09:42:41.299Z,6.55
2023-05-08T09:45:08.448Z,7.22
2023-05-08T09:47:37.443Z,7.35
2023-05-08T09:50:09.536Z,8.13
2023-05-08T09:52:37.985Z,6.63
2023-05-08T09:55:05.985Z,6.95
2023-05-08T09:57:38.211Z,6.30
2023-05-08T10:00:12.741Z,7.32
2023-05-08T10:02:54.113Z,10.35
2023-05-08T10:05:32.160Z,6.45
2023-05-08T10:08:17.309Z,9.38
2023-05-08T10:10:44.095Z,7.45
2023-05-08T10:13:10.907Z,7.55
2023-05-08T10:15:39.877Z,8.13
2023-05-08T10:18:08.912Z,7.25
2023-05-08T10:20:39.969Z,6.60
2023-05-08T10:23:14.489Z,6.88
2023-05-08T10:25:45.388Z,6.85
2023-05-08T10:28:37.038Z,7.15
2023-05-08T10:31:05.530Z,8.85
2023-05-08T10:33:34.644Z,8.77
2023-05-08T10:36:01.680Z,7.38
2023-05-08T10:38:28.623Z,9.85
2023-05-08T10:40:58.172Z,6.65
2023-05-08T10:43:25.548Z,7.55
2023-05-08T10:45:53.620Z,7.15
2023-05-08T10:48:50.586Z,7.78
2023-05-08T10:51:46.594Z,6.93
2023-05-08T10:54:21.764Z,8.38
2023-05-08T10:56:48.724Z,7.45
2023-05-08T10:59:19.804Z,7.88
2023-05-08T11:01:50.090Z,8.60
2023-05-08T11:04:23.680Z,8.18
2023-05-08T11:06:53.627Z,7.55
2023-05-08T11:09:44.923Z,7.05
2023-05-08T11:12:33.833Z,7.53
2023-05-08T11:15:06.091Z,7.95
2023-05-08T11:17:33.529Z,7.55
2023-05-08T11:20:05.158Z,6.72
2023-05-08T11:22:36.915Z,7.45
2023-05-08T11:25:10.217Z,7.53
2023-05-08T11:28:05.790Z,6.68
2023-05-08T11:30:32.395Z,9.77
2023-05-08T11:33:19.496Z,7.85
2023-05-08T11:36:00.151Z,7.65
2023-05-08T11:38:31.251Z,6.53
2023-05-08T11:41:03.129Z,7.13
2023-05-08T11:43:32.753Z,7.05
2023-05-08T11:46:04.347Z,7.50
2023-05-08T11:48:31.910Z,6.35
2023-05-08T11:51:02.387Z,7.60
2023-05-08T11:53:31.232Z,7.05
2023-05-08T11:55:58.930Z,6.75
2023-05-08T11:58:25.741Z,6.15
2023-05-08T12:00:52.781Z,6.68
2023-05-08T12:03:22.334Z,7.40
2023-05-08T12:05:50.128Z,6.15
2023-05-08T12:08:18.323Z,6.80
2023-05-08T12:10:54.959Z,7.28
2023-05-08T12:13:26.956Z,8.45
2023-05-08T12:15:56.243Z,7.25
2023-05-08T12:18:24.428Z,6.32
2023-05-08T12:20:52.835Z,6.00
2023-05-08T12:23:19.719Z,6.65
2023-05-08T12:25:46.432Z,6.22
2023-05-08T12:28:13.443Z,6.45
2023-05-08T12:30:40.167Z,7.13
2023-05-08T12:33:07.318Z,6.72
2023-05-08T12:35:34.419Z,6.57
2023-05-08T12:38:06.494Z,8.57
2023-05-08T12:40:44.535Z,6.97
2023-05-08T12:43:11.823Z,6.40
2023-05-08T12:45:40.079Z,6.30
2023-05-08T12:48:09.525Z,6.88
2023-05-08T12:50:41.204Z,6.78
2023-05-08T12:53:15.015Z,6.32
2023-05-08T12:55:53.852Z,6.43
2023-05-08T12:58:25.113Z,7.28
2023-05-08T13:00:53.084Z,6.85
2023-05-08T13:03:25.741Z,7.30
2023-05-08T13:05:54.470Z,6.22
2023-05-08T13:08:28.946Z,6.32
2023-05-08T13:10:56.262Z,6.15
2023-05-08T13:13:25.746Z,5.97
2023-05-08T13:15:54.411Z,7.25
2023-05-08T13:18:23.717Z,9.02
2023-05-08T13:20:50.349Z,7.75
2023-05-08T13:23:16.960Z,6.78
2023-05-08T13:25:43.880Z,6.80
2023-05-08T13:28:10.936Z,5.93
2023-05-08T13:30:37.986Z,7.72
2023-05-08T13:33:05.483Z,8.07
2023-05-08T13:35:33.733Z,6.05
2023-05-08T13:38:00.961Z,8.93
2023-05-08T13:40:27.936Z,6.03
2023-05-08T13:42:54.572Z,6.03
2023-05-08T13:45:21.426Z,5.80
2023-05-08T13:47:49.449Z,6.00
2023-05-08T13:50:18.296Z,8.27
2023-05-08T13:52:45.142Z,6.55
2023-05-08T13:55:13.597Z,9.02
2023-05-08T13:57:41.140Z,5.97
2023-05-08T14:00:08.892Z,6.28
2023-05-08T14:02:37.264Z,6.07
2023-05-08T14:05:05.367Z,8.65
2023-05-08T14:07:31.944Z,5.53
2023-05-08T14:09:58.668Z,6.07
2023-05-08T14:12:25.400Z,5.70
2023-05-08T14:14:52.072Z,6.95
2023-05-08T14:17:18.734Z,5.88
2023-05-08T14:19:46.187Z,7.68
2023-05-08T14:22:12.901Z,6.55
2023-05-08T14:24:39.964Z,6.50
2023-05-08T14:27:06.674Z,7.75
2023-05-08T14:29:34.307Z,7.15
2023-05-08T14:32:01.311Z,6.53
2023-05-08T14:34:28.156Z,7.38
2023-05-08T14:36:54.834Z,5.70
2023-05-08T14:39:21.685Z,6.85
2023-05-08T14:42:08.931Z,6.32
2023-05-08T14:44:35.091Z,6.32
2023-05-08T14:47:01.731Z,5.97
2023-05-08T14:49:37.479Z,7.13
2023-05-08T14:52:06.130Z,6.13
2023-05-08T14:54:32.917Z,6.25
2023-05-08T14:56:59.780Z,7.40
2023-05-08T14:59:26.380Z,7.22
2023-05-08T15:01:53.191Z,7.72
2023-05-08T15:04:20.082Z,5.93
2023-05-08T15:06:47.074Z,6.13
2023-05-08T15:09:13.961Z,6.18
2023-05-08T15:11:40.589Z,6.20
2023-05-08T15:14:07.236Z,6.32
2023-05-08T15:16:33.972Z,8.65
2023-05-08T15:19:00.595Z,7.63
2023-05-08T15:21:27.566Z,7.07
2023-05-08T15:23:55.527Z,6.32
2023-05-08T15:26:22.961Z,6.43
2023-05-08T15:28:49.765Z,7.13
2023-05-08T15:31:17.338Z,7.82
2023-05-08T15:33:45.068Z,7.15
2023-05-08T15:36:15.469Z,7.15
2023-05-08T15:38:42.611Z,8.43
2023-05-08T15:41:15.074Z,8.23
2023-05-08T15:43:42.810Z,6.93
2023-05-08T15:46:09.673Z,5.80
2023-05-08T15:48:36.548Z,7.75
2023-05-08T15:51:03.284Z,7.00
2023-05-08T15:53:29.971Z,5.90
2023-05-08T15:55:57.068Z,8.18
2023-05-08T15:58:24.207Z,6.78
2023-05-08T16:00:50.981Z,6.82
2023-05-08T16:03:17.853Z,11.27
2023-05-08T16:05:44.877Z,6.85
2023-05-08T16:08:12.857Z,6.95
2023-05-08T16:10:43.170Z,6.75
2023-05-08T16:13:09.930Z,10.57
2023-05-08T16:15:36.504Z,7.45
2023-05-08T16:18:03.593Z,7.28
2023-05-08T16:20:30.573Z,6.30
2023-05-08T16:22:58.572Z,6.13
2023-05-08T16:25:25.760Z,6.32
2023-05-08T16:27:52.542Z,7.13
2023-05-08T16:30:19.380Z,9.15
2023-05-08T16:32:46.423Z,9.38
2023-05-08T16:35:14.171Z,6.85
2023-05-08T16:37:41.194Z,6.03
2023-05-08T16:40:08.608Z,6.10
2023-05-08T16:42:36.116Z,6.60
2023-05-08T16:45:04.609Z,8.82
2023-05-08T16:47:31.317Z,7.38
2023-05-08T16:49:57.992Z,7.93
2023-05-08T16:52:24.872Z,7.13
2023-05-08T16:54:52.997Z,8.43
2023-05-08T16:57:19.637Z,7.25
2023-05-08T16:59:46.270Z,7.50
2023-05-08T17:02:18.272Z,8.27
2023-05-08T17:04:48.660Z,6.97
2023-05-08T17:07:15.822Z,7.20
2023-05-08T17:09:42.463Z,7.13
2023-05-08T17:12:09.193Z,7.35
2023-05-08T17:14:37.922Z,6.60
2023-05-08T17:17:04.554Z,6.13
2023-05-08T17:19:31.111Z,7.18
2023-05-08T17:21:59.558Z,6.63
2023-05-08T17:24:26.352Z,6.93
2023-05-08T17:26:53.002Z,7.78
2023-05-08T17:29:19.588Z,6.53
2023-05-08T17:31:46.194Z,8.90
2023-05-08T17:34:13.005Z,8.00
2023-05-08T17:36:39.665Z,7.75
2023-05-08T17:39:06.315Z,6.50
2023-05-08T17:41:32.864Z,6.28
2023-05-08T17:43:59.445Z,6.32
2023-05-08T17:46:26.028Z,6.78
2023-05-08T17:48:53.094Z,8.15
2023-05-08T17:51:19.707Z,7.07
2023-05-08T17:53:46.296Z,7.95
2023-05-08T17:56:12.800Z,7.63
2023-05-08T17:58:39.351Z,6.22
2023-05-08T18:01:06.756Z,9.02
2023-05-08T18:03:33.418Z,7.80
2023-05-08T18:06:00.412Z,6.30
2023-05-08T18:08:26.974Z,8.52
2023-05-08T18:10:53.592Z,6.80
2023-05-08T18:13:20.280Z,7.95
2023-05-08T18:15:47.029Z,6.28
2023-05-08T18:18:13.937Z,6.70
2023-05-08T18:20:40.528Z,6.68
2023-05-08T18:23:07.184Z,7.15
2023-05-08T18:25:35.545Z,7.82
2023-05-08T18:28:02.104Z,8.60
2023-05-08T18:30:28.650Z,7.18
2023-05-08T18:32:55.262Z,10.18
2023-05-08T18:35:21.855Z,6.53
2023-05-08T18:37:48.458Z,7.72
2023-05-08T18:40:15.139Z,6.13
2023-05-08T18:42:41.874Z,7.80
2023-05-08T18:45:09.185Z,7.55
2023-05-08T18:47:35.726Z,6.80
2023-05-08T18:50:02.268Z,6.65
2023-05-08T18:52:28.917Z,7.35
2023-05-08T18:54:55.480Z,7.20
2023-05-08T18:57:22.065Z,6.32
2023-05-08T18:59:48.567Z,8.27
2023-05-08T19:02:15.230Z,6.85
2023-05-08T19:04:41.818Z,6.75
2023-05-08T19:07:08.412Z,6.95
2023-05-08T19:09:35.004Z,6.63
2023-05-08T19:12:01.731Z,7.85
2023-05-08T19:14:28.338Z,8.63
2023-05-08T19:16:57.736Z,9.15
2023-05-08T19:19:25.076Z,6.70
2023-05-08T19:21:51.670Z,7.65
2023-05-08T19:24:20.745Z,7.95
2023-05-08T19:26:47.495Z,6.20
2023-05-08T19:29:14.166Z,6.80
2023-05-08T19:31:40.977Z,8.05
2023-05-08T19:34:07.671Z,8.25
2023-05-08T19:36:36.776Z,9.63
2023-05-08T19:39:05.188Z,7.72
2023-05-08T19:41:31.774Z,7.80
2023-05-08T19:43:58.321Z,7.72
2023-05-08T19:46:25.176Z,6.88
2023-05-08T19:48:51.886Z,6.50
2023-05-08T19:51:18.608Z,6.32
2023-05-08T19:53:45.257Z,7.95
2023-05-08T19:56:12.094Z,8.93
2023-05-08T19:58:38.681Z,8.10
2023-05-08T20:01:05.314Z,7.53
2023-05-08T20:03:32.196Z,7.45
2023-05-08T20:05:58.955Z,7.30
2023-05-08T20:08:25.599Z,6.68
2023-05-08T20:10:52.190Z,6.88
2023-05-08T20:13:18.968Z,8.50
2023-05-08T20:15:45.926Z,8.38
2023-05-08T20:18:12.665Z,7.15
2023-05-08T20:20:39.302Z,8.73
2023-05-08T20:23:06.938Z,7.32
2023-05-08T20:25:33.521Z,9.63
2023-05-08T20:28:00.121Z,7.85
2023-05-08T20:30:26.827Z,7.57
2023-05-08T20:32:53.518Z,8.75
2023-05-08T20:35:20.273Z,8.00
2023-05-08T20:37:47.896Z,8.65
2023-05-08T20:40:15.557Z,8.48
2023-05-08T20:42:42.475Z,8.30
2023-05-08T20:45:09.971Z,7.35
2023-05-08T20:47:36.733Z,7.75
2023-05-08T20:50:03.875Z,7.38
2023-05-08T20:52:32.246Z,8.65
2023-05-08T20:54:59.238Z,8.50
2023-05-08T20:57:25.985Z,7.40
2023-05-08T20:59:52.568Z,7.85
2023-05-08T21:02:19.256Z,8.68
2023-05-08T21:04:46.104Z,7.65
2023-05-08T21:07:13.426Z,7.95
2023-05-08T21:09:40.260Z,8.20
2023-05-08T21:12:07.276Z,7.60
2023-05-08T21:14:35.370Z,7.82
2023-05-08T21:17:02.138Z,7.57
2023-05-08T21:19:31.918Z,9.63
2023-05-08T21:21:58.500Z,8.63
2023-05-08T21:24:25.739Z,9.60
2023-05-08T21:26:53.067Z,7.63
2023-05-08T21:29:20.066Z,8.80
2023-05-08T21:31:46.768Z,9.05
2023-05-08T21:34:14.819Z,8.18
2023-05-08T21:36:41.518Z,10.93
2023-05-08T21:39:08.796Z,8.50
2023-05-08T21:41:35.503Z,8.40
2023-05-08T21:44:02.161Z,9.00
2023-05-08T21:46:28.878Z,8.43
2023-05-08T21:48:55.661Z,10.27
2023-05-08T21:51:22.368Z,8.73
2023-05-08T21:53:49.200Z,9.75
2023-05-08T21:56:16.543Z,7.55
2023-05-08T21:58:43.322Z,8.18
2023-05-08T22:01:10.202Z,9.25
2023-05-08T22:03:36.947Z,7.90
2023-05-08T22:06:03.764Z,7.95
2023-05-08T22:08:30.615Z,7.72
2023-05-08T22:14:03.348Z,7.78
2023-05-08T22:16:29.949Z,8.45
2023-05-08T22:18:56.695Z,8.52
2023-05-08T22:21:23.299Z,8.90
2023-05-08T22:23:50.248Z,8.88
2023-05-08T22:26:16.973Z,8.27
2023-05-08T22:28:43.599Z,7.90
2023-05-08T22:31:10.248Z,9.43
2023-05-08T22:33:36.855Z,8.70
2023-05-08T22:36:03.771Z,9.68
2023-05-08T22:38:30.476Z,8.38
2023-05-08T22:43:37.325Z,9.50
2023-05-08T22:46:04.139Z,10.80
2023-05-08T22:48:31.019Z,8.02
2023-05-08T22:50:57.597Z,9.68
2023-05-08T22:53:25.011Z,8.57
2023-05-08T22:55:51.736Z,9.75
2023-05-08T22:58:18.313Z,9.68
2023-05-08T23:00:44.921Z,8.85
2023-05-08T23:03:12.908Z,7.90
2023-05-08T23:05:39.499Z,9.90
2023-05-08T23:08:06.922Z,8.32
2023-05-08T23:10:33.460Z,9.77
2023-05-08T23:13:00.305Z,9.10
2023-05-08T23:15:26.932Z,10.38
2023-05-08T23:17:53.517Z,8.50
2023-05-08T23:20:20.274Z,9.60
2023-05-08T23:22:46.797Z,9.13
2023-05-08T23:25:13.631Z,8.25
2023-05-08T23:27:40.644Z,9.98
2023-05-08T23:30:07.937Z,8.75
2023-05-08T23:32:34.631Z,8.15
2023-05-08T23:35:01.225Z,8.65
2023-05-08T23:37:27.780Z,8.77
2023-05-08T23:39:54.981Z,9.88
2023-05-08T23:42:21.597Z,8.10
2023-05-08T23:44:48.162Z,10.32
2023-05-08T23:47:14.678Z,9.73
2023-05-08T23:49:41.278Z,11.38
2023-05-08T23:52:09.915Z,10.23
2023-05-08T23:54:36.587Z,9.45
2023-05-08T23:57:03.233Z,8.65
2023-05-08T23:59:29.959Z,9.98
